createdAt,value
2018-01-08T00:01:55.562Z,21.27
2018-01-08T00:04:25.134Z,21.10
2018-01-08T00:06:54.574Z,20.37
2018-01-08T00:09:24.029Z,21.03
2018-01-08T00:11:53.487Z,21.73
2018-01-08T00:14:22.985Z,20.70
2018-01-08T00:16:52.447Z,18.90
2018-01-08T00:19:21.887Z,21.17
2018-01-08T00:21:52.877Z,21.60
2018-01-08T00:24:22.439Z,20.67
2018-01-08T00:26:51.875Z,19.87
2018-01-08T00:29:21.326Z,21.03
2018-01-08T00:31:50.846Z,22.17
2018-01-08T00:34:20.320Z,20.10
2018-01-08T00:36:49.753Z,22.53
2018-01-08T00:39:19.194Z,20.30
2018-01-08T00:41:48.771Z,22.43
2018-01-08T00:44:18.217Z,21.57
2018-01-08T00:46:47.681Z,21.87
2018-01-08T00:49:17.120Z,22.30
2018-01-08T00:51:46.230Z,21.93
2018-01-08T00:54:15.774Z,22.60
2018-01-08T00:56:45.233Z,21.10
2018-01-08T00:59:14.886Z,21.90
2018-01-08T01:01:44.333Z,22.43
2018-01-08T01:04:13.793Z,21.63
2018-01-08T01:06:43.285Z,20.87
2018-01-08T01:09:12.731Z,21.23
2018-01-08T01:11:42.198Z,23.37
2018-01-08T01:14:11.630Z,22.20
2018-01-08T01:16:41.087Z,23.50
2018-01-08T01:19:10.529Z,21.83
2018-01-08T01:21:39.982Z,21.57
2018-01-08T01:24:09.437Z,22.73
2018-01-08T01:26:38.925Z,22.93
2018-01-08T01:29:08.354Z,22.37
2018-01-08T01:31:37.818Z,22.37
2018-01-08T01:34:07.266Z,23.23
2018-01-08T01:36:36.701Z,21.23
2018-01-08T01:39:06.167Z,22.10
2018-01-08T01:41:35.879Z,22.27
2018-01-08T01:44:05.345Z,20.97
2018-01-08T01:46:35.078Z,23.53
2018-01-08T01:49:10.197Z,21.73
2018-01-08T01:51:39.637Z,20.87
2018-01-08T01:54:09.094Z,21.50
2018-01-08T01:56:38.525Z,22.40
2018-01-08T01:59:07.987Z,23.03
2018-01-08T02:01:37.430Z,21.50
2018-01-08T02:04:06.917Z,21.30
2018-01-08T02:06:36.368Z,23.13
2018-01-08T02:09:05.802Z,21.90
2018-01-08T02:11:35.258Z,20.97
2018-01-08T02:14:04.853Z,21.90
2018-01-08T02:16:34.297Z,20.37
2018-01-08T02:19:03.786Z,21.97
2018-01-08T02:21:33.249Z,21.90
2018-01-08T02:24:02.681Z,21.20
2018-01-08T02:26:32.141Z,21.80
2018-01-08T02:29:01.581Z,22.07
2018-01-08T02:31:31.033Z,22.30
2018-01-08T02:34:00.590Z,22.93
2018-01-08T02:36:30.042Z,20.63
2018-01-08T02:38:59.473Z,23.93
2018-01-08T02:41:28.943Z,23.17
2018-01-08T02:43:58.425Z,21.17
2018-01-08T02:46:27.887Z,22.03
2018-01-08T02:48:57.357Z,22.10
2018-01-08T02:51:26.809Z,21.50
2018-01-08T02:53:56.246Z,23.47
2018-01-08T02:56:25.882Z,22.30
2018-01-08T02:58:55.425Z,23.47
2018-01-08T03:01:24.885Z,24.17
2018-01-08T03:03:54.317Z,21.97
2018-01-08T03:06:23.762Z,21.87
2018-01-08T03:08:53.222Z,22.27
2018-01-08T03:11:22.650Z,22.20
2018-01-08T03:13:52.103Z,23.63
2018-01-08T03:16:21.545Z,23.10
2018-01-08T03:18:51.133Z,23.87
2018-01-08T03:21:20.567Z,21.53
2018-01-08T03:23:50.046Z,24.50
2018-01-08T03:26:19.519Z,23.17
2018-01-08T03:28:48.961Z,22.43
2018-01-08T03:31:18.432Z,22.70
2018-01-08T03:33:47.861Z,23.90
2018-01-08T03:36:17.325Z,24.80
2018-01-08T03:38:46.773Z,23.77
2018-01-08T03:41:16.238Z,24.67
2018-01-08T03:43:45.682Z,23.40
2018-01-08T03:46:15.157Z,22.67
2018-01-08T03:48:44.710Z,23.70
2018-01-08T03:51:14.142Z,23.70
2018-01-08T03:53:43.602Z,23.93
2018-01-08T03:56:13.042Z,23.20
2018-01-08T03:58:42.516Z,23.40
2018-01-08T04:01:11.945Z,25.40
2018-01-08T04:03:41.406Z,23.40
2018-01-08T04:06:10.862Z,23.40
2018-01-08T04:08:40.342Z,24.50
2018-01-08T04:11:09.837Z,24.73
2018-01-08T04:13:39.283Z,24.03
2018-01-08T04:16:08.735Z,24.77
2018-01-08T04:18:38.258Z,23.00
2018-01-08T04:21:07.711Z,23.30
2018-01-08T04:23:37.490Z,24.00
2018-01-08T04:26:06.927Z,24.30
2018-01-08T04:28:36.386Z,24.90
2018-01-08T04:31:05.841Z,24.83
2018-01-08T04:33:35.293Z,24.27
2018-01-08T04:36:04.943Z,25.17
2018-01-08T04:38:34.421Z,23.47
2018-01-08T04:41:03.914Z,23.90
2018-01-08T04:43:33.374Z,23.47
2018-01-08T04:46:02.803Z,25.03
2018-01-08T04:48:32.241Z,23.27
2018-01-08T04:51:01.718Z,23.40
2018-01-08T04:53:31.166Z,23.73
2018-01-08T04:56:00.613Z,22.60
2018-01-08T04:58:30.062Z,24.67
2018-01-08T05:00:59.530Z,24.53
2018-01-08T05:03:29.169Z,24.50
2018-01-08T05:05:58.634Z,25.57
2018-01-08T05:08:28.077Z,24.30
2018-01-08T05:10:57.561Z,24.10
2018-01-08T05:13:27.005Z,24.90
2018-01-08T05:15:56.496Z,23.60
2018-01-08T05:18:25.935Z,25.10
2018-01-08T05:20:55.412Z,23.53
2018-01-08T05:23:24.869Z,25.40
2018-01-08T05:25:54.306Z,25.30
2018-01-08T05:28:23.759Z,25.20
2018-01-08T05:30:53.197Z,23.70
2018-01-08T05:33:22.658Z,23.30
2018-01-08T05:35:52.113Z,24.87
2018-01-08T05:38:21.572Z,23.90
2018-01-08T05:40:51.010Z,24.27
2018-01-08T05:43:20.462Z,25.17
2018-01-08T05:45:49.906Z,24.07
2018-01-08T05:48:19.365Z,24.90
2018-01-08T05:50:48.806Z,23.77
2018-01-08T05:53:18.269Z,24.03
2018-01-08T05:55:47.737Z,23.33
2018-01-08T05:58:17.368Z,23.67
2018-01-08T06:00:46.854Z,24.33
2018-01-08T06:03:16.425Z,23.73
2018-01-08T06:05:45.905Z,25.37
2018-01-08T06:08:15.358Z,24.97
2018-01-08T06:10:44.818Z,24.00
2018-01-08T06:13:14.294Z,25.30
2018-01-08T06:15:43.740Z,23.63
2018-01-08T06:18:13.201Z,24.30
2018-01-08T06:20:42.699Z,23.90
2018-01-08T06:23:12.175Z,23.60
2018-01-08T06:25:41.633Z,25.10
2018-01-08T06:28:11.089Z,23.90
2018-01-08T06:30:40.554Z,24.30
2018-01-08T06:33:09.991Z,25.87
2018-01-08T06:35:39.562Z,25.00
2018-01-08T06:38:09.003Z,24.47
2018-01-08T06:40:38.441Z,24.03
2018-01-08T06:43:07.893Z,24.80
2018-01-08T06:45:37.329Z,23.77
2018-01-08T06:48:06.783Z,23.97
2018-01-08T06:50:36.234Z,25.30
2018-01-08T06:53:05.730Z,25.33
2018-01-08T06:55:35.302Z,23.90
2018-01-08T06:58:04.769Z,22.47
2018-01-08T07:00:34.202Z,24.20
2018-01-08T07:03:03.666Z,23.90
2018-01-08T07:05:33.121Z,22.83
2018-01-08T07:08:02.576Z,22.90
2018-01-08T07:10:32.013Z,23.23
2018-01-08T07:13:01.462Z,24.90
2018-01-08T07:15:30.920Z,22.80
2018-01-08T07:18:00.375Z,23.70
2018-01-08T07:20:29.809Z,23.80
2018-01-08T07:22:59.263Z,22.97
2018-01-08T07:25:28.705Z,24.17
2018-01-08T07:27:58.154Z,23.03
2018-01-08T07:30:27.669Z,23.73
2018-01-08T07:32:57.121Z,23.20
2018-01-08T07:35:26.556Z,22.57
2018-01-08T07:37:56.026Z,24.23
2018-01-08T07:40:25.538Z,23.60
2018-01-08T07:42:55.130Z,22.47
2018-01-08T07:45:24.654Z,23.10
2018-01-08T07:47:54.121Z,24.27
2018-01-08T07:50:23.586Z,23.93
2018-01-08T07:52:53.030Z,23.77
2018-01-08T07:55:22.555Z,24.37
2018-01-08T07:57:52.022Z,22.63
2018-01-08T08:00:21.497Z,23.70
2018-01-08T08:02:50.942Z,23.47
2018-01-08T08:05:20.420Z,24.63
2018-01-08T08:07:49.895Z,23.57
2018-01-08T08:10:19.516Z,21.67
2018-01-08T08:12:48.943Z,22.40
2018-01-08T08:15:18.381Z,24.27
2018-01-08T08:17:47.841Z,24.13
2018-01-08T08:20:17.282Z,22.70
2018-01-08T08:22:46.785Z,21.33
2018-01-08T08:25:16.242Z,21.90
2018-01-08T08:27:45.733Z,22.93
2018-01-08T08:30:15.250Z,21.93
2018-01-08T08:32:44.724Z,23.00
2018-01-08T08:35:13.982Z,24.90
2018-01-08T08:37:43.476Z,23.73
2018-01-08T08:40:12.906Z,22.50
2018-01-08T08:42:42.410Z,21.40
2018-01-08T08:45:11.872Z,22.60
2018-01-08T08:47:41.316Z,21.53
2018-01-08T08:50:10.801Z,23.40
2018-01-08T08:52:40.241Z,24.07
2018-01-08T08:55:09.692Z,21.40
2018-01-08T08:57:39.176Z,24.17
2018-01-08T09:00:08.618Z,23.40
2018-01-08T09:02:38.054Z,21.23
2018-01-08T09:05:07.582Z,20.87
2018-01-08T09:07:37.065Z,20.27
2018-01-08T09:10:06.670Z,20.07
2018-01-08T09:12:36.338Z,22.93
2018-01-08T09:15:05.798Z,21.03
2018-01-08T09:17:35.233Z,22.07
2018-01-08T09:20:04.717Z,22.30
2018-01-08T09:22:34.156Z,23.40
2018-01-08T09:25:03.609Z,21.20
2018-01-08T09:27:33.098Z,20.73
2018-01-08T09:30:02.714Z,21.63
2018-01-08T09:32:32.306Z,22.13
2018-01-08T09:35:02.070Z,21.80
2018-01-08T09:37:31.530Z,22.83
2018-01-08T09:40:01.026Z,23.77
2018-01-08T09:42:30.516Z,21.20
2018-01-08T09:44:59.991Z,23.40
2018-01-08T09:47:29.446Z,20.10
2018-01-08T09:49:58.911Z,20.63
2018-01-08T09:52:28.371Z,20.00
2018-01-08T09:54:57.871Z,22.07
2018-01-08T09:57:27.482Z,22.03
2018-01-08T09:59:57.078Z,21.53
2018-01-08T10:02:25.990Z,21.50
2018-01-08T10:05:01.194Z,20.27
2018-01-08T10:07:36.207Z,22.47
2018-01-08T10:10:11.246Z,21.97
2018-01-08T10:12:46.223Z,21.73
2018-01-08T10:15:21.340Z,20.83
2018-01-08T10:17:56.426Z,22.97
2018-01-08T10:20:25.905Z,21.43
2018-01-08T10:22:55.362Z,21.70
2018-01-08T10:25:24.798Z,21.63
2018-01-08T10:27:54.263Z,22.00
2018-01-08T10:30:23.398Z,22.67
2018-01-08T10:32:52.566Z,21.63
2018-01-08T10:35:21.895Z,22.00
2018-01-08T10:37:51.329Z,21.63
2018-01-08T10:40:20.838Z,20.83
2018-01-08T10:42:56.111Z,22.33
2018-01-08T10:45:31.199Z,23.77
2018-01-08T10:48:06.325Z,21.80
2018-01-08T10:50:41.459Z,22.70
2018-01-08T10:53:14.414Z,21.63
2018-01-08T10:55:43.877Z,22.87
2018-01-08T10:58:13.330Z,22.27
2018-01-08T11:00:42.590Z,21.70
2018-01-08T11:03:17.314Z,20.40
2018-01-08T11:05:46.761Z,23.23
2018-01-08T11:08:16.226Z,22.63
2018-01-08T11:10:45.720Z,21.50
2018-01-08T11:13:15.170Z,21.00
2018-01-08T11:15:44.294Z,22.40
2018-01-08T11:18:13.414Z,20.67
2018-01-08T11:20:42.870Z,21.90
2018-01-08T11:23:12.305Z,20.37
2018-01-08T11:25:41.454Z,21.00
2018-01-08T11:28:10.943Z,21.03
2018-01-08T11:30:40.386Z,21.07
2018-01-08T11:33:09.854Z,21.70
2018-01-08T11:35:38.974Z,20.77
2018-01-08T11:38:08.098Z,21.67
2018-01-08T11:40:37.198Z,20.57
2018-01-08T11:43:06.325Z,19.60
2018-01-08T11:45:35.429Z,20.40
2018-01-08T11:48:04.559Z,21.27
2018-01-08T11:50:33.665Z,19.23
2018-01-08T11:53:02.827Z,20.03
2018-01-08T11:55:32.137Z,19.23
2018-01-08T11:58:01.262Z,18.73
2018-01-08T12:00:30.374Z,17.87
2018-01-08T12:02:59.882Z,18.73
2018-01-08T12:05:29.063Z,18.70
2018-01-08T12:07:58.193Z,19.40
2018-01-08T12:10:27.339Z,19.57
2018-01-08T12:12:56.474Z,20.27
2018-01-08T12:15:25.926Z,19.00
2018-01-08T12:17:55.216Z,18.50
2018-01-08T12:20:24.662Z,19.17
2018-01-08T12:22:53.858Z,20.27
2018-01-08T12:25:23.306Z,19.80
2018-01-08T12:27:52.890Z,19.13
2018-01-08T12:30:22.474Z,18.40
2018-01-08T12:32:51.929Z,18.23
2018-01-08T12:35:21.415Z,18.87
2018-01-08T12:37:51.093Z,18.90
2018-01-08T12:40:20.525Z,19.53
2018-01-08T12:42:49.982Z,18.00
2018-01-08T12:45:19.419Z,21.83
2018-01-08T12:47:48.883Z,18.07
2018-01-08T12:50:18.311Z,19.63
2018-01-08T12:52:47.763Z,17.43
2018-01-08T12:55:17.218Z,18.40
2018-01-08T12:57:46.707Z,17.37
2018-01-08T13:00:16.222Z,17.60
2018-01-08T13:02:45.650Z,18.23
2018-01-08T13:05:14.823Z,18.87
2018-01-08T13:07:43.926Z,18.27
2018-01-08T13:10:13.375Z,17.13
2018-01-08T13:12:42.853Z,17.53
2018-01-08T13:15:12.314Z,16.30
2018-01-08T13:17:41.769Z,17.43
2018-01-08T13:20:10.886Z,18.20
2018-01-08T13:22:40.348Z,17.17
2018-01-08T13:25:09.453Z,17.50
2018-01-08T13:27:38.942Z,17.40
2018-01-08T13:30:08.413Z,18.40
2018-01-08T13:32:37.858Z,21.27
2018-01-08T13:35:07.311Z,18.80
2018-01-08T13:37:36.746Z,21.07
2018-01-08T13:40:06.270Z,19.60
2018-01-08T13:42:35.710Z,20.60
2018-01-08T13:45:04.842Z,20.27
2018-01-08T13:47:33.951Z,20.70
2018-01-08T13:50:03.086Z,19.83
2018-01-08T13:52:32.373Z,18.73
2018-01-08T13:55:01.982Z,19.57
2018-01-08T13:57:31.141Z,19.73
2018-01-08T14:00:00.323Z,20.97
2018-01-08T14:02:29.702Z,19.00
2018-01-08T14:04:58.806Z,18.90
2018-01-08T14:07:27.938Z,18.50
2018-01-08T14:09:57.064Z,18.40
2018-01-08T14:12:26.180Z,18.20
2018-01-08T14:14:55.619Z,17.43
2018-01-08T14:17:25.076Z,17.20
2018-01-08T14:19:54.526Z,18.17
2018-01-08T14:22:23.990Z,18.87
2018-01-08T14:24:53.421Z,18.73
2018-01-08T14:27:22.547Z,18.60
2018-01-08T14:29:51.994Z,17.83
2018-01-08T14:32:21.126Z,17.20
2018-01-08T14:34:50.603Z,18.33
2018-01-08T14:37:20.109Z,18.57
2018-01-08T14:39:49.542Z,18.87
2018-01-08T14:42:19.237Z,19.17
2018-01-08T14:44:48.906Z,17.20
2018-01-08T14:47:18.362Z,18.43
2018-01-08T14:49:47.845Z,18.47
2018-01-08T14:52:17.357Z,17.13
2018-01-08T14:54:46.855Z,17.70
2018-01-08T14:57:16.305Z,17.90
2018-01-08T14:59:45.767Z,19.77
2018-01-08T15:02:15.214Z,17.33
2018-01-08T15:04:44.686Z,17.00
2018-01-08T15:07:14.124Z,16.77
2018-01-08T15:09:43.690Z,17.07
2018-01-08T15:12:13.197Z,17.47
2018-01-08T15:14:42.630Z,17.50
2018-01-08T15:17:12.093Z,15.77
2018-01-08T15:19:41.334Z,16.83
2018-01-08T15:22:10.894Z,16.87
2018-01-08T15:24:40.554Z,15.70
2018-01-08T15:27:09.954Z,17.20
2018-01-08T15:29:39.403Z,16.43
2018-01-08T15:32:08.866Z,16.60
2018-01-08T15:34:38.305Z,17.90
2018-01-08T15:37:07.758Z,16.60
2018-01-08T15:39:37.217Z,17.50
2018-01-08T15:42:06.657Z,17.80
2018-01-08T15:44:36.137Z,17.40
2018-01-08T15:47:05.588Z,18.77
2018-01-08T15:49:35.050Z,17.17
2018-01-08T15:52:04.494Z,16.63
2018-01-08T15:54:33.990Z,17.20
2018-01-08T15:57:03.444Z,16.03
2018-01-08T15:59:32.896Z,17.03
2018-01-08T16:02:02.405Z,16.87
2018-01-08T16:04:31.911Z,17.00
2018-01-08T16:07:01.182Z,16.07
2018-01-08T16:09:30.627Z,18.40
2018-01-08T16:12:00.206Z,16.10
2018-01-08T16:14:29.670Z,16.20
2018-01-08T16:16:58.789Z,16.10
2018-01-08T16:19:28.274Z,15.30
2018-01-08T16:21:57.707Z,15.63
2018-01-08T16:24:27.163Z,15.23
2018-01-08T16:26:56.617Z,16.57
2018-01-08T16:29:26.054Z,16.70
2018-01-08T16:31:55.506Z,16.60
2018-01-08T16:34:24.958Z,16.80
2018-01-08T16:36:54.504Z,16.70
2018-01-08T16:39:23.986Z,15.70
2018-01-08T16:41:53.514Z,16.77
2018-01-08T16:44:22.969Z,15.60
2018-01-08T16:46:52.442Z,16.03
2018-01-08T16:49:21.935Z,17.27
2018-01-08T16:51:51.386Z,16.50
2018-01-08T16:54:20.852Z,16.63
2018-01-08T16:56:50.318Z,16.87
2018-01-08T16:59:19.873Z,16.83
2018-01-08T17:01:49.321Z,16.30
2018-01-08T17:04:18.825Z,22.40
2018-01-08T17:06:48.265Z,20.93
2018-01-08T17:09:17.864Z,19.10
2018-01-08T17:11:47.360Z,17.17
2018-01-08T17:14:16.496Z,16.27
2018-01-08T17:16:45.951Z,17.90
2018-01-08T17:19:15.498Z,15.50
2018-01-08T17:21:44.950Z,15.70
2018-01-08T17:24:14.457Z,15.90
2018-01-08T17:26:43.915Z,17.40
2018-01-08T17:29:13.375Z,14.90
2018-01-08T17:31:42.830Z,15.53
2018-01-08T17:34:12.406Z,15.27
2018-01-08T17:36:41.875Z,15.33
2018-01-08T17:39:11.382Z,16.43
2018-01-08T17:41:40.519Z,17.43
2018-01-08T17:44:09.995Z,17.00
2018-01-08T17:46:39.463Z,15.80
2018-01-08T17:49:09.066Z,16.37
2018-01-08T17:51:38.527Z,17.17
2018-01-08T17:54:07.971Z,15.93
2018-01-08T17:56:37.432Z,17.00
2018-01-08T17:59:06.912Z,17.47
2018-01-08T18:01:36.362Z,17.70
2018-01-08T18:04:05.839Z,15.33
2018-01-08T18:06:35.357Z,17.90
2018-01-08T18:09:04.461Z,16.77
2018-01-08T18:11:33.930Z,18.70
2018-01-08T18:14:03.378Z,17.77
2018-01-08T18:16:32.836Z,17.17
2018-01-08T18:19:02.318Z,16.97
2018-01-08T18:21:31.758Z,18.10
2018-01-08T18:24:01.230Z,18.07
2018-01-08T18:26:30.670Z,16.07
2018-01-08T18:29:00.139Z,16.37
2018-01-08T18:31:29.601Z,17.20
2018-01-08T18:33:59.181Z,16.23
2018-01-08T18:36:28.619Z,16.57
2018-01-08T18:38:58.086Z,16.97
2018-01-08T18:41:27.576Z,17.67
2018-01-08T18:43:57.034Z,16.80
2018-01-08T18:46:26.562Z,16.70
2018-01-08T18:48:56.043Z,18.03
2018-01-08T18:51:25.546Z,16.70
2018-01-08T18:53:55.098Z,15.20
2018-01-08T18:56:24.537Z,16.63
2018-01-08T18:58:54.002Z,16.37
2018-01-08T19:01:23.552Z,15.67
2018-01-08T19:03:53.002Z,15.20
2018-01-08T19:06:22.471Z,15.17
2018-01-08T19:08:51.961Z,15.47
2018-01-08T19:11:21.421Z,15.60
2018-01-08T19:13:50.906Z,16.87
2018-01-08T19:16:20.358Z,16.80
2018-01-08T19:18:49.807Z,16.60
2018-01-08T19:21:19.385Z,16.20
2018-01-08T19:23:49.491Z,17.90
2018-01-08T19:26:19.051Z,17.07
2018-01-08T19:28:48.526Z,18.57
2018-01-08T19:31:17.988Z,17.37
2018-01-08T19:33:47.491Z,19.00
2018-01-08T19:36:16.808Z,18.90
2018-01-08T19:38:46.285Z,18.60
2018-01-08T19:41:15.749Z,18.50
2018-01-08T19:43:45.330Z,20.07
2018-01-08T19:46:14.788Z,17.87
2018-01-08T19:48:44.264Z,16.00
2018-01-08T19:51:13.712Z,18.63
2018-01-08T19:53:43.162Z,18.87
2018-01-08T19:56:12.646Z,18.30
2018-01-08T19:58:42.370Z,18.23
2018-01-08T20:01:11.826Z,18.67
2018-01-08T20:03:41.270Z,22.97
2018-01-08T20:06:10.869Z,20.57
2018-01-08T20:08:40.340Z,21.53
2018-01-08T20:11:09.830Z,23.87
2018-01-08T20:13:39.286Z,21.30
2018-01-08T20:16:08.777Z,27.33
2018-01-08T20:18:38.240Z,22.13
2018-01-08T20:21:07.690Z,21.27
2018-01-08T20:23:37.163Z,20.50
2018-01-08T20:26:06.658Z,21.03
2018-01-08T20:28:36.168Z,22.77
2018-01-08T20:31:05.617Z,23.23
2018-01-08T20:33:35.105Z,22.13
2018-01-08T20:36:04.564Z,24.10
2018-01-08T20:38:34.101Z,20.83
2018-01-08T20:41:03.560Z,24.23
2018-01-08T20:43:33.194Z,23.10
2018-01-08T20:46:02.641Z,21.97
2018-01-08T20:48:32.117Z,22.00
2018-01-08T20:51:01.580Z,24.53
2018-01-08T20:53:31.042Z,22.77
2018-01-08T20:56:00.689Z,22.63
2018-01-08T20:58:30.168Z,21.50
2018-01-08T21:00:59.678Z,23.83
2018-01-08T21:03:29.142Z,25.57
2018-01-08T21:05:58.638Z,23.80
2018-01-08T21:08:28.089Z,23.23
2018-01-08T21:10:57.567Z,24.53
2018-01-08T21:13:27.228Z,24.10
2018-01-08T21:15:56.711Z,21.57
2018-01-08T21:18:26.164Z,24.20
2018-01-08T21:20:55.659Z,23.20
2018-01-08T21:23:25.102Z,23.40
2018-01-08T21:25:54.574Z,25.10
2018-01-08T21:28:24.090Z,25.03
2018-01-08T21:30:53.647Z,24.60
2018-01-08T21:33:23.089Z,23.40
2018-01-08T21:35:52.572Z,25.40
2018-01-08T21:38:22.003Z,24.77
2018-01-08T21:40:51.485Z,24.47
2018-01-08T21:43:20.989Z,25.63
2018-01-08T21:45:50.452Z,25.07
2018-01-08T21:48:19.912Z,26.30
2018-01-08T21:50:49.354Z,25.67
2018-01-08T21:53:18.826Z,26.47
2018-01-08T21:55:48.288Z,23.53
2018-01-08T21:58:17.774Z,24.90
2018-01-08T22:00:47.257Z,26.27
2018-01-08T22:03:16.874Z,24.90
2018-01-08T22:05:46.322Z,25.53
2018-01-08T22:08:15.808Z,24.40
2018-01-08T22:10:45.444Z,25.50
2018-01-08T22:13:14.899Z,24.80
2018-01-08T22:15:44.357Z,25.40
2018-01-08T22:18:13.806Z,23.70
2018-01-08T22:20:43.279Z,26.17
2018-01-08T22:23:12.713Z,25.80
2018-01-08T22:25:42.174Z,26.00
2018-01-08T22:28:11.613Z,25.07
2018-01-08T22:30:41.083Z,30.07
2018-01-08T22:33:10.529Z,26.17
2018-01-08T22:35:39.993Z,26.07
2018-01-08T22:38:09.455Z,31.43
2018-01-08T22:40:39.022Z,32.67
2018-01-08T22:43:08.469Z,27.43
2018-01-08T22:45:37.946Z,26.03
2018-01-08T22:48:07.390Z,26.27
2018-01-08T22:50:36.838Z,23.47
2018-01-08T22:53:06.290Z,26.37
2018-01-08T22:55:36.022Z,34.53
2018-01-08T22:58:05.473Z,36.10
2018-01-08T23:00:34.917Z,29.37
2018-01-08T23:03:04.398Z,26.53
2018-01-08T23:05:33.902Z,29.00
2018-01-08T23:08:03.353Z,26.97
2018-01-08T23:10:32.807Z,27.83
2018-01-08T23:13:02.386Z,28.73
2018-01-08T23:15:31.830Z,30.80
2018-01-08T23:18:01.281Z,27.80
2018-01-08T23:20:30.720Z,24.90
2018-01-08T23:23:00.196Z,27.10
2018-01-08T23:25:29.642Z,24.53
2018-01-08T23:27:59.094Z,25.17
2018-01-08T23:30:28.531Z,24.70
2018-01-08T23:32:57.970Z,26.50
2018-01-08T23:35:27.472Z,29.50
2018-01-08T23:37:56.928Z,26.33
2018-01-08T23:40:26.369Z,26.70
2018-01-08T23:42:55.815Z,26.70
2018-01-08T23:45:25.333Z,25.27
2018-01-08T23:47:54.773Z,31.77
2018-01-08T23:50:24.235Z,25.30
2018-01-08T23:52:53.673Z,25.93
2018-01-08T23:55:23.154Z,21.13
2018-01-08T23:57:52.602Z,22.07
